sensor_id;sensor_type;location;lat;lon;timestamp;P1;durP1;ratioP1;P2;durP2;ratioP2
12348;SDS011;5974;42.710;27.258;2023-01-29T00:02:06;8.07;;;6.33;;
12348;SDS011;5974;42.710;27.258;2023-01-29T00:04:36;7.87;;;5.97;;
12348;SDS011;5974;42.710;27.258;2023-01-29T00:07:06;9.07;;;6.43;;
12348;SDS011;5974;42.710;27.258;2023-01-29T00:09:34;7.50;;;6.20;;
12348;SDS011;5974;42.710;27.258;2023-01-29T00:12:03;8.87;;;6.63;;
12348;SDS011;5974;42.710;27.258;2023-01-29T00:14:33;7.33;;;6.00;;
12348;SDS011;5974;42.710;27.258;2023-01-29T00:17:05;9.30;;;6.47;;
12348;SDS011;5974;42.710;27.258;2023-01-29T00:19:38;8.03;;;5.57;;
12348;SDS011;5974;42.710;27.258;2023-01-29T00:22:05;7.63;;;6.10;;
12348;SDS011;5974;42.710;27.258;2023-01-29T00:24:41;7.83;;;6.33;;
12348;SDS011;5974;42.710;27.258;2023-01-29T00:27:10;8.43;;;6.37;;
12348;SDS011;5974;42.710;27.258;2023-01-29T00:29:38;8.60;;;6.33;;
12348;SDS011;5974;42.710;27.258;2023-01-29T00:32:06;7.87;;;6.23;;
12348;SDS011;5974;42.710;27.258;2023-01-29T00:34:33;10.47;;;7.00;;
12348;SDS011;5974;42.710;27.258;2023-01-29T00:37:00;9.10;;;5.93;;
12348;SDS011;5974;42.710;27.258;2023-01-29T00:39:34;6.77;;;5.40;;
12348;SDS011;5974;42.710;27.258;2023-01-29T00:42:04;7.10;;;5.93;;
12348;SDS011;5974;42.710;27.258;2023-01-29T00:44:51;8.87;;;5.80;;
12348;SDS011;5974;42.710;27.258;2023-01-29T00:47:23;6.33;;;5.07;;
12348;SDS011;5974;42.710;27.258;2023-01-29T00:49:57;7.43;;;6.00;;
12348;SDS011;5974;42.710;27.258;2023-01-29T00:52:24;9.10;;;6.13;;
12348;SDS011;5974;42.710;27.258;2023-01-29T00:54:52;7.77;;;5.87;;
12348;SDS011;5974;42.710;27.258;2023-01-29T00:57:20;7.17;;;5.47;;
12348;SDS011;5974;42.710;27.258;2023-01-29T00:59:47;8.50;;;6.13;;
12348;SDS011;5974;42.710;27.258;2023-01-29T01:02:16;9.50;;;6.13;;
12348;SDS011;5974;42.710;27.258;2023-01-29T01:05:00;8.43;;;5.80;;
12348;SDS011;5974;42.710;27.258;2023-01-29T01:07:41;8.00;;;5.80;;
12348;SDS011;5974;42.710;27.258;2023-01-29T01:10:08;7.57;;;6.03;;
12348;SDS011;5974;42.710;27.258;2023-01-29T01:12:47;7.40;;;6.07;;
12348;SDS011;5974;42.710;27.258;2023-01-29T01:15:17;8.93;;;6.20;;
12348;SDS011;5974;42.710;27.258;2023-01-29T01:17:46;9.67;;;6.30;;
12348;SDS011;5974;42.710;27.258;2023-01-29T01:22:42;7.90;;;5.70;;
12348;SDS011;5974;42.710;27.258;2023-01-29T01:25:09;7.67;;;6.00;;
12348;SDS011;5974;42.710;27.258;2023-01-29T01:27:37;8.53;;;5.97;;
12348;SDS011;5974;42.710;27.258;2023-01-29T01:30:08;8.73;;;6.30;;
12348;SDS011;5974;42.710;27.258;2023-01-29T01:32:42;10.60;;;6.20;;
12348;SDS011;5974;42.710;27.258;2023-01-29T01:35:15;7.43;;;6.00;;
12348;SDS011;5974;42.710;27.258;2023-01-29T01:37:45;7.73;;;5.50;;
12348;SDS011;5974;42.710;27.258;2023-01-29T01:40:14;8.33;;;6.03;;
12348;SDS011;5974;42.710;27.258;2023-01-29T01:42:46;7.63;;;5.77;;
12348;SDS011;5974;42.710;27.258;2023-01-29T01:45:18;7.87;;;5.90;;
12348;SDS011;5974;42.710;27.258;2023-01-29T01:47:49;6.63;;;5.30;;
12348;SDS011;5974;42.710;27.258;2023-01-29T01:50:22;7.07;;;5.37;;
12348;SDS011;5974;42.710;27.258;2023-01-29T01:52:53;8.63;;;6.10;;
12348;SDS011;5974;42.710;27.258;2023-01-29T01:55:26;10.30;;;5.83;;
12348;SDS011;5974;42.710;27.258;2023-01-29T01:57:59;8.17;;;6.33;;
12348;SDS011;5974;42.710;27.258;2023-01-29T02:00:36;7.47;;;5.60;;
12348;SDS011;5974;42.710;27.258;2023-01-29T02:03:08;8.53;;;5.70;;
12348;SDS011;5974;42.710;27.258;2023-01-29T02:05:56;9.80;;;5.73;;
12348;SDS011;5974;42.710;27.258;2023-01-29T02:08:45;6.40;;;5.60;;
12348;SDS011;5974;42.710;27.258;2023-01-29T02:11:35;8.50;;;5.90;;
12348;SDS011;5974;42.710;27.258;2023-01-29T02:14:05;7.70;;;5.80;;
12348;SDS011;5974;42.710;27.258;2023-01-29T02:16:33;7.87;;;6.10;;
12348;SDS011;5974;42.710;27.258;2023-01-29T02:19:02;7.60;;;5.57;;
12348;SDS011;5974;42.710;27.258;2023-01-29T02:25:00;8.30;;;5.70;;
12348;SDS011;5974;42.710;27.258;2023-01-29T02:30:46;7.33;;;5.73;;
12348;SDS011;5974;42.710;27.258;2023-01-29T02:33:28;7.10;;;5.20;;
12348;SDS011;5974;42.710;27.258;2023-01-29T02:36:06;6.90;;;5.23;;
12348;SDS011;5974;42.710;27.258;2023-01-29T02:38:47;8.07;;;5.97;;
12348;SDS011;5974;42.710;27.258;2023-01-29T02:41:24;7.20;;;5.70;;
12348;SDS011;5974;42.710;27.258;2023-01-29T02:44:02;7.23;;;5.40;;
12348;SDS011;5974;42.710;27.258;2023-01-29T02:46:38;7.47;;;5.30;;
12348;SDS011;5974;42.710;27.258;2023-01-29T02:49:16;7.13;;;5.40;;
12348;SDS011;5974;42.710;27.258;2023-01-29T02:51:55;5.80;;;5.20;;
12348;SDS011;5974;42.710;27.258;2023-01-29T02:54:27;6.57;;;5.13;;
12348;SDS011;5974;42.710;27.258;2023-01-29T02:57:00;7.67;;;5.10;;
12348;SDS011;5974;42.710;27.258;2023-01-29T02:59:41;7.43;;;4.97;;
12348;SDS011;5974;42.710;27.258;2023-01-29T03:02:13;7.23;;;5.40;;
12348;SDS011;5974;42.710;27.258;2023-01-29T03:04:46;7.80;;;5.37;;
12348;SDS011;5974;42.710;27.258;2023-01-29T03:07:18;6.77;;;4.97;;
12348;SDS011;5974;42.710;27.258;2023-01-29T03:10:08;8.10;;;5.77;;
12348;SDS011;5974;42.710;27.258;2023-01-29T03:12:40;8.40;;;5.13;;
12348;SDS011;5974;42.710;27.258;2023-01-29T03:15:12;6.73;;;5.37;;
12348;SDS011;5974;42.710;27.258;2023-01-29T03:17:50;8.90;;;5.40;;
12348;SDS011;5974;42.710;27.258;2023-01-29T03:20:26;6.53;;;5.00;;
12348;SDS011;5974;42.710;27.258;2023-01-29T03:23:02;6.30;;;5.30;;
12348;SDS011;5974;42.710;27.258;2023-01-29T03:25:36;7.27;;;5.20;;
12348;SDS011;5974;42.710;27.258;2023-01-29T03:28:22;6.77;;;5.43;;
12348;SDS011;5974;42.710;27.258;2023-01-29T03:31:10;6.73;;;5.07;;
12348;SDS011;5974;42.710;27.258;2023-01-29T03:33:57;7.03;;;5.30;;
12348;SDS011;5974;42.710;27.258;2023-01-29T03:36:30;7.40;;;4.80;;
12348;SDS011;5974;42.710;27.258;2023-01-29T03:39:04;6.27;;;4.87;;
12348;SDS011;5974;42.710;27.258;2023-01-29T03:41:39;7.30;;;5.50;;
12348;SDS011;5974;42.710;27.258;2023-01-29T03:44:20;6.90;;;5.33;;
12348;SDS011;5974;42.710;27.258;2023-01-29T03:47:00;7.40;;;5.23;;
12348;SDS011;5974;42.710;27.258;2023-01-29T03:49:36;5.80;;;4.80;;
12348;SDS011;5974;42.710;27.258;2023-01-29T03:52:18;6.53;;;4.60;;
12348;SDS011;5974;42.710;27.258;2023-01-29T03:54:53;6.83;;;4.70;;
12348;SDS011;5974;42.710;27.258;2023-01-29T03:57:33;7.10;;;4.83;;
12348;SDS011;5974;42.710;27.258;2023-01-29T04:00:05;6.73;;;5.27;;
12348;SDS011;5974;42.710;27.258;2023-01-29T04:02:41;6.30;;;4.60;;
12348;SDS011;5974;42.710;27.258;2023-01-29T04:05:17;6.23;;;4.63;;
12348;SDS011;5974;42.710;27.258;2023-01-29T04:07:49;5.70;;;4.77;;
12348;SDS011;5974;42.710;27.258;2023-01-29T04:10:26;6.30;;;5.17;;
12348;SDS011;5974;42.710;27.258;2023-01-29T04:12:58;7.63;;;5.27;;
12348;SDS011;5974;42.710;27.258;2023-01-29T04:15:30;6.87;;;4.90;;
12348;SDS011;5974;42.710;27.258;2023-01-29T04:18:04;7.57;;;5.10;;
12348;SDS011;5974;42.710;27.258;2023-01-29T04:20:33;6.10;;;4.53;;
12348;SDS011;5974;42.710;27.258;2023-01-29T04:23:04;6.33;;;4.53;;
12348;SDS011;5974;42.710;27.258;2023-01-29T04:25:34;6.23;;;5.00;;
12348;SDS011;5974;42.710;27.258;2023-01-29T04:28:12;6.67;;;4.40;;
12348;SDS011;5974;42.710;27.258;2023-01-29T04:30:49;6.30;;;5.00;;
12348;SDS011;5974;42.710;27.258;2023-01-29T04:33:28;6.80;;;5.07;;
12348;SDS011;5974;42.710;27.258;2023-01-29T04:36:02;6.60;;;5.13;;
12348;SDS011;5974;42.710;27.258;2023-01-29T04:38:45;6.57;;;4.87;;
12348;SDS011;5974;42.710;27.258;2023-01-29T04:41:23;7.47;;;4.73;;
12348;SDS011;5974;42.710;27.258;2023-01-29T04:44:06;6.67;;;5.13;;
12348;SDS011;5974;42.710;27.258;2023-01-29T04:46:41;5.97;;;4.80;;
12348;SDS011;5974;42.710;27.258;2023-01-29T04:49:21;6.23;;;4.70;;
12348;SDS011;5974;42.710;27.258;2023-01-29T04:51:57;7.07;;;5.13;;
12348;SDS011;5974;42.710;27.258;2023-01-29T04:54:32;5.87;;;4.70;;
12348;SDS011;5974;42.710;27.258;2023-01-29T04:57:08;6.30;;;4.67;;
12348;SDS011;5974;42.710;27.258;2023-01-29T04:59:54;7.00;;;5.37;;
12348;SDS011;5974;42.710;27.258;2023-01-29T05:02:38;6.93;;;5.20;;
12348;SDS011;5974;42.710;27.258;2023-01-29T05:05:20;6.47;;;4.83;;
12348;SDS011;5974;42.710;27.258;2023-01-29T05:07:59;7.63;;;5.17;;
12348;SDS011;5974;42.710;27.258;2023-01-29T05:10:29;7.67;;;5.10;;
12348;SDS011;5974;42.710;27.258;2023-01-29T05:12:57;5.47;;;4.33;;
12348;SDS011;5974;42.710;27.258;2023-01-29T05:15:28;6.83;;;4.73;;
12348;SDS011;5974;42.710;27.258;2023-01-29T05:18:00;6.80;;;4.80;;
12348;SDS011;5974;42.710;27.258;2023-01-29T05:20:35;5.77;;;4.60;;
12348;SDS011;5974;42.710;27.258;2023-01-29T05:23:07;5.50;;;4.37;;
12348;SDS011;5974;42.710;27.258;2023-01-29T05:25:36;7.93;;;5.00;;
12348;SDS011;5974;42.710;27.258;2023-01-29T05:28:04;7.23;;;5.00;;
12348;SDS011;5974;42.710;27.258;2023-01-29T05:30:33;6.27;;;4.63;;
12348;SDS011;5974;42.710;27.258;2023-01-29T05:33:03;7.47;;;5.00;;
12348;SDS011;5974;42.710;27.258;2023-01-29T05:35:39;6.80;;;4.60;;
12348;SDS011;5974;42.710;27.258;2023-01-29T05:38:08;5.97;;;4.87;;
12348;SDS011;5974;42.710;27.258;2023-01-29T05:40:44;6.93;;;4.80;;
12348;SDS011;5974;42.710;27.258;2023-01-29T05:43:17;6.23;;;4.80;;
12348;SDS011;5974;42.710;27.258;2023-01-29T05:45:50;7.07;;;5.30;;
12348;SDS011;5974;42.710;27.258;2023-01-29T05:48:18;6.30;;;4.40;;
12348;SDS011;5974;42.710;27.258;2023-01-29T05:50:47;6.77;;;5.13;;
12348;SDS011;5974;42.710;27.258;2023-01-29T05:53:14;6.87;;;4.57;;
12348;SDS011;5974;42.710;27.258;2023-01-29T05:55:42;6.30;;;4.90;;
12348;SDS011;5974;42.710;27.258;2023-01-29T05:58:10;6.73;;;4.43;;
12348;SDS011;5974;42.710;27.258;2023-01-29T06:00:38;6.97;;;4.93;;
12348;SDS011;5974;42.710;27.258;2023-01-29T06:03:06;6.37;;;4.70;;
12348;SDS011;5974;42.710;27.258;2023-01-29T06:05:36;5.80;;;4.23;;
12348;SDS011;5974;42.710;27.258;2023-01-29T06:08:06;6.43;;;5.20;;
12348;SDS011;5974;42.710;27.258;2023-01-29T06:10:34;6.97;;;4.60;;
12348;SDS011;5974;42.710;27.258;2023-01-29T06:13:03;7.00;;;4.60;;
12348;SDS011;5974;42.710;27.258;2023-01-29T06:15:33;7.00;;;4.80;;
12348;SDS011;5974;42.710;27.258;2023-01-29T06:18:01;5.87;;;4.63;;
12348;SDS011;5974;42.710;27.258;2023-01-29T06:20:31;5.80;;;4.30;;
12348;SDS011;5974;42.710;27.258;2023-01-29T06:22:58;6.40;;;5.03;;
12348;SDS011;5974;42.710;27.258;2023-01-29T06:25:27;5.87;;;4.57;;
12348;SDS011;5974;42.710;27.258;2023-01-29T06:27:56;5.93;;;5.10;;
12348;SDS011;5974;42.710;27.258;2023-01-29T06:30:23;6.00;;;4.93;;
12348;SDS011;5974;42.710;27.258;2023-01-29T06:32:56;7.13;;;5.00;;
12348;SDS011;5974;42.710;27.258;2023-01-29T06:35:25;5.20;;;4.67;;
12348;SDS011;5974;42.710;27.258;2023-01-29T06:37:53;6.87;;;5.20;;
12348;SDS011;5974;42.710;27.258;2023-01-29T06:40:22;7.00;;;5.27;;
12348;SDS011;5974;42.710;27.258;2023-01-29T06:42:50;6.67;;;4.80;;
12348;SDS011;5974;42.710;27.258;2023-01-29T06:45:18;5.13;;;3.97;;
12348;SDS011;5974;42.710;27.258;2023-01-29T06:47:46;6.87;;;5.10;;
12348;SDS011;5974;42.710;27.258;2023-01-29T06:50:16;5.90;;;4.70;;
12348;SDS011;5974;42.710;27.258;2023-01-29T06:52:44;6.47;;;4.70;;
12348;SDS011;5974;42.710;27.258;2023-01-29T06:55:12;5.00;;;4.50;;
12348;SDS011;5974;42.710;27.258;2023-01-29T06:57:43;5.80;;;4.40;;
12348;SDS011;5974;42.710;27.258;2023-01-29T07:00:18;5.63;;;4.10;;
12348;SDS011;5974;42.710;27.258;2023-01-29T07:02:47;5.27;;;4.50;;
12348;SDS011;5974;42.710;27.258;2023-01-29T07:05:15;4.67;;;4.17;;
12348;SDS011;5974;42.710;27.258;2023-01-29T07:07:45;5.73;;;4.40;;
12348;SDS011;5974;42.710;27.258;2023-01-29T07:10:12;6.70;;;4.07;;
12348;SDS011;5974;42.710;27.258;2023-01-29T07:12:39;5.73;;;4.30;;
12348;SDS011;5974;42.710;27.258;2023-01-29T07:15:14;5.53;;;3.63;;
12348;SDS011;5974;42.710;27.258;2023-01-29T07:17:55;5.30;;;4.40;;
12348;SDS011;5974;42.710;27.258;2023-01-29T07:20:26;5.30;;;4.43;;
12348;SDS011;5974;42.710;27.258;2023-01-29T07:22:55;5.60;;;4.50;;
12348;SDS011;5974;42.710;27.258;2023-01-29T07:25:23;5.83;;;4.50;;
12348;SDS011;5974;42.710;27.258;2023-01-29T07:27:54;5.80;;;4.40;;
12348;SDS011;5974;42.710;27.258;2023-01-29T07:30:24;5.43;;;4.20;;
12348;SDS011;5974;42.710;27.258;2023-01-29T07:32:56;5.80;;;4.57;;
12348;SDS011;5974;42.710;27.258;2023-01-29T07:35:28;4.60;;;4.07;;
12348;SDS011;5974;42.710;27.258;2023-01-29T07:37:56;5.77;;;4.80;;
12348;SDS011;5974;42.710;27.258;2023-01-29T07:40:51;5.23;;;4.30;;
12348;SDS011;5974;42.710;27.258;2023-01-29T07:43:45;5.23;;;4.33;;
12348;SDS011;5974;42.710;27.258;2023-01-29T07:46:15;4.03;;;3.63;;
12348;SDS011;5974;42.710;27.258;2023-01-29T07:52:09;5.17;;;4.20;;
12348;SDS011;5974;42.710;27.258;2023-01-29T07:54:43;4.90;;;4.10;;
12348;SDS011;5974;42.710;27.258;2023-01-29T07:57:54;5.07;;;3.80;;
12348;SDS011;5974;42.710;27.258;2023-01-29T08:04:12;3.90;;;3.50;;
12348;SDS011;5974;42.710;27.258;2023-01-29T08:07:26;4.33;;;3.93;;
12348;SDS011;5974;42.710;27.258;2023-01-29T08:10:25;4.43;;;3.50;;
12348;SDS011;5974;42.710;27.258;2023-01-29T08:13:11;4.27;;;3.87;;
12348;SDS011;5974;42.710;27.258;2023-01-29T08:15:41;4.67;;;3.53;;
12348;SDS011;5974;42.710;27.258;2023-01-29T08:18:47;5.43;;;4.30;;
12348;SDS011;5974;42.710;27.258;2023-01-29T08:21:35;5.03;;;4.20;;
12348;SDS011;5974;42.710;27.258;2023-01-29T08:24:56;4.67;;;4.10;;
12348;SDS011;5974;42.710;27.258;2023-01-29T08:30:54;6.17;;;5.23;;
12348;SDS011;5974;42.710;27.258;2023-01-29T08:33:52;6.97;;;4.90;;
12348;SDS011;5974;42.710;27.258;2023-01-29T08:36:55;6.10;;;4.80;;
12348;SDS011;5974;42.710;27.258;2023-01-29T08:39:55;5.00;;;4.50;;
12348;SDS011;5974;42.710;27.258;2023-01-29T08:53:23;4.17;;;3.77;;
12348;SDS011;5974;42.710;27.258;2023-01-29T09:09:18;4.13;;;3.70;;
12348;SDS011;5974;42.710;27.258;2023-01-29T09:12:13;3.63;;;3.30;;
12348;SDS011;5974;42.710;27.258;2023-01-29T09:14:42;5.47;;;3.60;;
12348;SDS011;5974;42.710;27.258;2023-01-29T09:17:36;5.27;;;3.63;;
12348;SDS011;5974;42.710;27.258;2023-01-29T09:20:09;4.10;;;3.70;;
12348;SDS011;5974;42.710;27.258;2023-01-29T09:22:41;4.40;;;3.70;;
12348;SDS011;5974;42.710;27.258;2023-01-29T09:25:20;5.97;;;3.30;;
12348;SDS011;5974;42.710;27.258;2023-01-29T09:28:01;4.23;;;3.17;;
12348;SDS011;5974;42.710;27.258;2023-01-29T09:30:32;3.93;;;3.43;;
12348;SDS011;5974;42.710;27.258;2023-01-29T09:33:02;3.83;;;3.43;;
12348;SDS011;5974;42.710;27.258;2023-01-29T09:35:34;5.20;;;3.33;;
12348;SDS011;5974;42.710;27.258;2023-01-29T09:38:05;4.17;;;3.27;;
12348;SDS011;5974;42.710;27.258;2023-01-29T09:40:39;3.43;;;3.13;;
12348;SDS011;5974;42.710;27.258;2023-01-29T09:43:19;3.90;;;3.47;;
12348;SDS011;5974;42.710;27.258;2023-01-29T09:45:55;3.33;;;3.03;;
12348;SDS011;5974;42.710;27.258;2023-01-29T09:48:29;3.50;;;3.20;;
12348;SDS011;5974;42.710;27.258;2023-01-29T09:51:02;6.30;;;3.47;;
12348;SDS011;5974;42.710;27.258;2023-01-29T09:53:39;4.10;;;3.70;;
12348;SDS011;5974;42.710;27.258;2023-01-29T09:56:19;3.40;;;3.10;;
12348;SDS011;5974;42.710;27.258;2023-01-29T09:58:56;4.13;;;3.63;;
12348;SDS011;5974;42.710;27.258;2023-01-29T10:01:32;4.00;;;3.60;;
12348;SDS011;5974;42.710;27.258;2023-01-29T10:04:17;4.10;;;3.60;;
12348;SDS011;5974;42.710;27.258;2023-01-29T10:23:27;3.50;;;3.20;;
12348;SDS011;5974;42.710;27.258;2023-01-29T10:26:23;4.17;;;3.77;;
12348;SDS011;5974;42.710;27.258;2023-01-29T10:36:09;4.33;;;3.27;;
12348;SDS011;5974;42.710;27.258;2023-01-29T10:39:04;3.60;;;3.10;;
12348;SDS011;5974;42.710;27.258;2023-01-29T10:42:20;3.43;;;3.13;;
12348;SDS011;5974;42.710;27.258;2023-01-29T10:45:24;3.70;;;3.23;;
12348;SDS011;5974;42.710;27.258;2023-01-29T11:04:56;4.63;;;3.93;;
12348;SDS011;5974;42.710;27.258;2023-01-29T11:11:11;4.17;;;3.50;;
12348;SDS011;5974;42.710;27.258;2023-01-29T11:47:59;4.73;;;4.13;;
12348;SDS011;5974;42.710;27.258;2023-01-29T11:51:04;5.03;;;4.20;;
12348;SDS011;5974;42.710;27.258;2023-01-29T11:53:37;5.00;;;4.23;;
12348;SDS011;5974;42.710;27.258;2023-01-29T11:56:24;6.37;;;4.97;;
12348;SDS011;5974;42.710;27.258;2023-01-29T11:59:25;4.53;;;4.10;;
12348;SDS011;5974;42.710;27.258;2023-01-29T12:09:00;6.97;;;6.07;;
12348;SDS011;5974;42.710;27.258;2023-01-29T12:11:57;5.33;;;4.77;;
12348;SDS011;5974;42.710;27.258;2023-01-29T12:15:23;8.57;;;7.27;;
12348;SDS011;5974;42.710;27.258;2023-01-29T12:18:22;7.53;;;5.93;;
12348;SDS011;5974;42.710;27.258;2023-01-29T12:31:05;7.93;;;5.60;;
12348;SDS011;5974;42.710;27.258;2023-01-29T12:34:40;6.63;;;5.40;;
12348;SDS011;5974;42.710;27.258;2023-01-29T12:37:39;10.13;;;8.00;;
12348;SDS011;5974;42.710;27.258;2023-01-29T13:01:39;7.70;;;5.50;;
12348;SDS011;5974;42.710;27.258;2023-01-29T13:05:00;5.53;;;4.50;;
12348;SDS011;5974;42.710;27.258;2023-01-29T13:37:57;7.83;;;5.60;;
12348;SDS011;5974;42.710;27.258;2023-01-29T13:40:33;6.83;;;5.77;;
12348;SDS011;5974;42.710;27.258;2023-01-29T13:43:16;5.80;;;4.87;;
12348;SDS011;5974;42.710;27.258;2023-01-29T13:46:13;7.07;;;5.40;;
12348;SDS011;5974;42.710;27.258;2023-01-29T13:49:19;7.33;;;5.70;;
12348;SDS011;5974;42.710;27.258;2023-01-29T13:52:38;6.57;;;5.80;;
12348;SDS011;5974;42.710;27.258;2023-01-29T14:16:47;6.07;;;5.23;;
12348;SDS011;5974;42.710;27.258;2023-01-29T14:19:56;7.20;;;5.40;;
12348;SDS011;5974;42.710;27.258;2023-01-29T14:23:06;6.33;;;5.47;;
12348;SDS011;5974;42.710;27.258;2023-01-29T14:38:30;8.83;;;5.60;;
12348;SDS011;5974;42.710;27.258;2023-01-29T14:41:16;6.17;;;5.30;;
12348;SDS011;5974;42.710;27.258;2023-01-29T15:02:48;7.17;;;6.40;;
12348;SDS011;5974;42.710;27.258;2023-01-29T15:09:38;7.37;;;5.30;;
12348;SDS011;5974;42.710;27.258;2023-01-29T15:12:49;6.47;;;5.07;;
12348;SDS011;5974;42.710;27.258;2023-01-29T15:15:48;6.87;;;5.23;;
12348;SDS011;5974;42.710;27.258;2023-01-29T15:25:33;6.47;;;5.13;;
12348;SDS011;5974;42.710;27.258;2023-01-29T15:28:52;6.73;;;5.47;;
12348;SDS011;5974;42.710;27.258;2023-01-29T15:32:44;7.03;;;5.23;;
12348;SDS011;5974;42.710;27.258;2023-01-29T16:23:21;7.37;;;5.67;;
12348;SDS011;5974;42.710;27.258;2023-01-29T16:26:16;7.70;;;6.10;;
12348;SDS011;5974;42.710;27.258;2023-01-29T16:29:33;9.50;;;6.10;;
12348;SDS011;5974;42.710;27.258;2023-01-29T16:32:41;7.30;;;5.57;;
12348;SDS011;5974;42.710;27.258;2023-01-29T17:00:07;7.67;;;6.07;;
12348;SDS011;5974;42.710;27.258;2023-01-29T17:03:03;7.63;;;5.37;;
12348;SDS011;5974;42.710;27.258;2023-01-29T17:45:37;8.43;;;6.23;;
12348;SDS011;5974;42.710;27.258;2023-01-29T17:49:18;8.03;;;5.90;;
12348;SDS011;5974;42.710;27.258;2023-01-29T17:52:29;9.33;;;6.20;;
12348;SDS011;5974;42.710;27.258;2023-01-29T17:56:00;8.17;;;5.73;;
12348;SDS011;5974;42.710;27.258;2023-01-29T18:12:17;8.10;;;6.03;;
12348;SDS011;5974;42.710;27.258;2023-01-29T18:15:53;9.67;;;6.67;;
12348;SDS011;5974;42.710;27.258;2023-01-29T18:19:11;8.20;;;6.30;;
12348;SDS011;5974;42.710;27.258;2023-01-29T18:22:44;8.47;;;6.27;;
12348;SDS011;5974;42.710;27.258;2023-01-29T18:25:39;9.27;;;6.43;;
12348;SDS011;5974;42.710;27.258;2023-01-29T18:28:30;8.30;;;6.23;;
12348;SDS011;5974;42.710;27.258;2023-01-29T18:31:38;9.27;;;7.07;;
12348;SDS011;5974;42.710;27.258;2023-01-29T18:37:25;9.93;;;6.90;;
12348;SDS011;5974;42.710;27.258;2023-01-29T18:49:57;8.57;;;6.60;;
12348;SDS011;5974;42.710;27.258;2023-01-29T18:52:58;11.37;;;7.87;;
12348;SDS011;5974;42.710;27.258;2023-01-29T18:55:27;10.60;;;8.07;;
12348;SDS011;5974;42.710;27.258;2023-01-29T18:57:55;10.07;;;7.80;;
12348;SDS011;5974;42.710;27.258;2023-01-29T19:00:22;9.37;;;7.60;;
12348;SDS011;5974;42.710;27.258;2023-01-29T19:02:49;11.17;;;8.00;;
12348;SDS011;5974;42.710;27.258;2023-01-29T19:05:16;10.40;;;7.23;;
12348;SDS011;5974;42.710;27.258;2023-01-29T19:07:46;9.83;;;7.63;;
12348;SDS011;5974;42.710;27.258;2023-01-29T19:10:15;10.83;;;7.73;;
12348;SDS011;5974;42.710;27.258;2023-01-29T19:12:42;10.90;;;7.93;;
12348;SDS011;5974;42.710;27.258;2023-01-29T19:15:09;12.10;;;7.70;;
12348;SDS011;5974;42.710;27.258;2023-01-29T19:17:37;9.33;;;7.27;;
12348;SDS011;5974;42.710;27.258;2023-01-29T19:20:04;10.90;;;8.13;;
12348;SDS011;5974;42.710;27.258;2023-01-29T19:22:34;13.27;;;8.27;;
12348;SDS011;5974;42.710;27.258;2023-01-29T19:25:01;10.30;;;8.10;;
12348;SDS011;5974;42.710;27.258;2023-01-29T19:27:29;10.83;;;8.10;;
12348;SDS011;5974;42.710;27.258;2023-01-29T19:29:56;10.87;;;7.97;;
12348;SDS011;5974;42.710;27.258;2023-01-29T19:32:23;12.97;;;9.03;;
12348;SDS011;5974;42.710;27.258;2023-01-29T19:34:53;12.07;;;8.73;;
12348;SDS011;5974;42.710;27.258;2023-01-29T19:37:21;12.37;;;9.10;;
12348;SDS011;5974;42.710;27.258;2023-01-29T19:39:54;10.93;;;8.10;;
12348;SDS011;5974;42.710;27.258;2023-01-29T19:42:21;12.27;;;8.87;;
12348;SDS011;5974;42.710;27.258;2023-01-29T19:44:51;29.90;;;18.33;;
12348;SDS011;5974;42.710;27.258;2023-01-29T19:47:18;13.83;;;10.23;;
12348;SDS011;5974;42.710;27.258;2023-01-29T19:49:46;18.30;;;11.67;;
12348;SDS011;5974;42.710;27.258;2023-01-29T19:52:17;13.07;;;9.40;;
12348;SDS011;5974;42.710;27.258;2023-01-29T19:55:11;14.30;;;9.70;;
12348;SDS011;5974;42.710;27.258;2023-01-29T19:57:39;12.03;;;9.13;;
12348;SDS011;5974;42.710;27.258;2023-01-29T20:00:08;13.07;;;9.57;;
12348;SDS011;5974;42.710;27.258;2023-01-29T20:02:39;11.53;;;8.57;;
12348;SDS011;5974;42.710;27.258;2023-01-29T20:05:06;13.37;;;9.27;;
12348;SDS011;5974;42.710;27.258;2023-01-29T20:07:36;12.37;;;8.77;;
12348;SDS011;5974;42.710;27.258;2023-01-29T20:10:04;12.03;;;8.90;;
12348;SDS011;5974;42.710;27.258;2023-01-29T20:12:36;12.10;;;8.77;;
12348;SDS011;5974;42.710;27.258;2023-01-29T20:15:04;14.63;;;9.20;;
12348;SDS011;5974;42.710;27.258;2023-01-29T20:17:31;11.70;;;8.77;;
12348;SDS011;5974;42.710;27.258;2023-01-29T20:20:01;13.03;;;9.23;;
12348;SDS011;5974;42.710;27.258;2023-01-29T20:22:30;12.20;;;8.70;;
12348;SDS011;5974;42.710;27.258;2023-01-29T20:24:59;12.17;;;8.60;;
12348;SDS011;5974;42.710;27.258;2023-01-29T20:27:26;12.27;;;9.10;;
12348;SDS011;5974;42.710;27.258;2023-01-29T20:29:55;14.43;;;9.27;;
12348;SDS011;5974;42.710;27.258;2023-01-29T20:32:22;13.37;;;9.77;;
12348;SDS011;5974;42.710;27.258;2023-01-29T20:34:49;13.83;;;9.13;;
12348;SDS011;5974;42.710;27.258;2023-01-29T20:37:17;13.17;;;9.20;;
12348;SDS011;5974;42.710;27.258;2023-01-29T20:39:44;13.77;;;8.73;;
12348;SDS011;5974;42.710;27.258;2023-01-29T20:42:11;13.83;;;9.67;;
12348;SDS011;5974;42.710;27.258;2023-01-29T20:44:39;13.80;;;9.80;;
12348;SDS011;5974;42.710;27.258;2023-01-29T20:47:08;16.20;;;10.87;;
12348;SDS011;5974;42.710;27.258;2023-01-29T20:49:36;12.67;;;9.50;;
12348;SDS011;5974;42.710;27.258;2023-01-29T20:52:03;13.47;;;9.77;;
12348;SDS011;5974;42.710;27.258;2023-01-29T20:54:31;13.87;;;10.53;;
12348;SDS011;5974;42.710;27.258;2023-01-29T20:56:58;13.87;;;9.43;;
12348;SDS011;5974;42.710;27.258;2023-01-29T20:59:25;13.27;;;9.23;;
12348;SDS011;5974;42.710;27.258;2023-01-29T21:01:53;12.43;;;9.03;;
12348;SDS011;5974;42.710;27.258;2023-01-29T21:04:21;13.47;;;9.50;;
12348;SDS011;5974;42.710;27.258;2023-01-29T21:06:48;13.23;;;9.17;;
12348;SDS011;5974;42.710;27.258;2023-01-29T21:09:15;13.93;;;9.93;;
12348;SDS011;5974;42.710;27.258;2023-01-29T21:11:42;13.73;;;9.70;;
12348;SDS011;5974;42.710;27.258;2023-01-29T21:14:10;13.93;;;9.70;;
12348;SDS011;5974;42.710;27.258;2023-01-29T21:16:36;13.93;;;9.60;;
12348;SDS011;5974;42.710;27.258;2023-01-29T21:19:03;12.77;;;8.93;;
12348;SDS011;5974;42.710;27.258;2023-01-29T21:21:32;14.00;;;9.47;;
12348;SDS011;5974;42.710;27.258;2023-01-29T21:23:58;12.50;;;9.13;;
12348;SDS011;5974;42.710;27.258;2023-01-29T21:26:47;13.37;;;9.00;;
